createdAt,value
2023-04-06T00:01:56.651Z,100835.38
2023-04-06T00:04:24.261Z,100834.75
2023-04-06T00:06:51.531Z,100839.25
2023-04-06T00:09:19.112Z,100839.03
2023-04-06T00:11:47.673Z,100840.09
2023-04-06T00:14:18.177Z,100836.50
2023-04-06T00:16:45.537Z,100833.19
2023-04-06T00:19:13.237Z,100841.34
2023-04-06T00:21:40.605Z,100834.38
2023-04-06T00:24:07.987Z,100837.72
2023-04-06T00:26:35.377Z,100836.59
2023-04-06T00:29:03.974Z,100841.69
2023-04-06T00:31:31.255Z,100839.25
2023-04-06T00:33:59.445Z,100842.16
2023-04-06T00:36:27.353Z,100836.81
2023-04-06T00:38:54.626Z,100832.34
2023-04-06T00:41:22.185Z,100832.44
2023-04-06T00:43:49.487Z,100830.72
2023-04-06T00:46:18.088Z,100826.16
2023-04-06T00:48:45.381Z,100830.34
2023-04-06T00:51:12.679Z,100836.09
2023-04-06T00:53:39.938Z,100832.66
2023-04-06T00:56:07.443Z,100832.59
2023-04-06T00:58:38.850Z,100826.91
2023-04-06T01:01:06.223Z,100829.34
2023-04-06T01:03:34.859Z,100834.75
2023-04-06T01:06:02.175Z,100825.84
2023-04-06T01:08:29.909Z,100828.53
2023-04-06T01:10:57.238Z,100830.81
2023-04-06T01:13:24.501Z,100824.16
2023-04-06T01:15:51.864Z,100835.13
2023-04-06T01:18:19.131Z,100832.63
2023-04-06T01:20:47.709Z,100828.06
2023-04-06T01:23:16.523Z,100827.94
2023-04-06T01:25:43.797Z,100821.50
2023-04-06T01:28:11.279Z,100829.22
2023-04-06T01:30:38.608Z,100824.19
2023-04-06T01:33:06.096Z,100819.03
2023-04-06T01:35:33.448Z,100825.75
2023-04-06T01:38:00.764Z,100823.72
2023-04-06T01:40:29.347Z,100825.28
2023-04-06T01:42:56.582Z,100828.63
2023-04-06T01:45:23.829Z,100818.22
2023-04-06T01:47:51.179Z,100817.44
2023-04-06T01:50:18.670Z,100823.13
2023-04-06T01:52:46.121Z,100823.09
2023-04-06T01:55:13.360Z,100818.66
2023-04-06T01:57:41.996Z,100817.13
2023-04-06T02:00:09.778Z,100819.75
2023-04-06T02:02:37.276Z,100823.72
2023-04-06T02:05:04.790Z,100819.94
2023-04-06T02:07:32.063Z,100818.00
2023-04-06T02:09:59.320Z,100816.13
2023-04-06T02:12:26.596Z,100815.94
2023-04-06T02:14:55.236Z,100815.53
2023-04-06T02:17:22.513Z,100822.72
2023-04-06T02:19:50.070Z,100812.88
2023-04-06T02:22:17.460Z,100812.69
2023-04-06T02:24:44.710Z,100813.84
2023-04-06T02:27:11.972Z,100812.06
2023-04-06T02:29:39.225Z,100818.50
2023-04-06T02:32:07.891Z,100805.09
2023-04-06T02:34:35.371Z,100801.59
2023-04-06T02:37:02.701Z,100811.66
2023-04-06T02:39:30.060Z,100816.22
2023-04-06T02:41:57.963Z,100807.75
2023-04-06T02:44:25.387Z,100810.31
2023-04-06T02:46:52.693Z,100813.47
2023-04-06T02:49:21.423Z,100815.03
2023-04-06T02:51:48.716Z,100812.59
2023-04-06T02:54:16.003Z,100809.41
2023-04-06T02:56:43.278Z,100812.03
2023-04-06T02:59:10.819Z,100809.41
2023-04-06T03:01:38.554Z,100814.31
2023-04-06T03:04:05.849Z,100818.78
2023-04-06T03:06:34.444Z,100814.31
2023-04-06T03:09:01.737Z,100815.25
2023-04-06T03:11:29.042Z,100816.00
2023-04-06T03:13:56.333Z,100815.66
2023-04-06T03:16:23.634Z,100820.84
2023-04-06T03:18:50.950Z,100807.75
2023-04-06T03:21:18.239Z,100815.38
2023-04-06T03:23:46.871Z,100817.88
2023-04-06T03:26:14.145Z,100810.75
2023-04-06T03:28:41.411Z,100814.59
2023-04-06T03:31:08.713Z,100820.81
2023-04-06T03:33:36.098Z,100821.13
2023-04-06T03:36:03.417Z,100827.72
2023-04-06T03:38:30.741Z,100834.28
2023-04-06T03:40:59.332Z,100823.72
2023-04-06T03:43:26.590Z,100825.94
2023-04-06T03:45:53.852Z,100832.22
2023-04-06T03:48:21.134Z,100835.59
2023-04-06T03:50:48.426Z,100840.13
2023-04-06T03:53:15.763Z,100840.91
2023-04-06T03:55:43.146Z,100838.34
2023-04-06T03:58:11.760Z,100844.50
2023-04-06T04:00:39.118Z,100839.97
2023-04-06T04:03:06.612Z,100844.88
2023-04-06T04:05:34.004Z,100845.63
2023-04-06T04:08:01.294Z,100845.19
2023-04-06T04:10:28.582Z,100842.53
2023-04-06T04:12:55.894Z,100844.34
2023-04-06T04:15:24.528Z,100851.28
2023-04-06T04:17:52.008Z,100853.91
2023-04-06T04:20:19.836Z,100846.00
2023-04-06T04:22:47.084Z,100838.31
2023-04-06T04:25:15.324Z,100847.78
2023-04-06T04:27:42.612Z,100847.03
2023-04-06T04:30:10.369Z,100847.03
2023-04-06T04:32:38.996Z,100849.78
2023-04-06T04:35:06.766Z,100850.47
2023-04-06T04:37:35.846Z,100852.31
2023-04-06T04:40:03.647Z,100852.41
2023-04-06T04:42:30.920Z,100848.91
2023-04-06T04:44:58.170Z,100852.41
2023-04-06T04:47:25.531Z,100852.69
2023-04-06T04:49:54.140Z,100846.13
2023-04-06T04:52:21.437Z,100847.72
2023-04-06T04:54:48.906Z,100848.84
2023-04-06T04:57:16.174Z,100838.00
2023-04-06T04:59:44.407Z,100846.81
2023-04-06T05:02:11.746Z,100847.88
2023-04-06T05:04:39.085Z,100847.13
2023-04-06T05:07:08.613Z,100848.06
2023-04-06T05:09:36.064Z,100851.31
2023-04-06T05:12:03.448Z,100859.50
2023-04-06T05:14:31.019Z,100862.09
2023-04-06T05:16:58.330Z,100866.38
2023-04-06T05:19:25.687Z,100865.69
2023-04-06T05:21:52.962Z,100869.09
2023-04-06T05:24:21.543Z,100868.91
2023-04-06T05:26:48.811Z,100872.47
2023-04-06T05:29:16.131Z,100872.97
2023-04-06T05:31:43.526Z,100871.38
2023-04-06T05:34:11.477Z,100872.94
2023-04-06T05:36:38.776Z,100873.59
2023-04-06T05:39:06.260Z,100873.00
2023-04-06T05:41:35.086Z,100871.94
2023-04-06T05:44:02.357Z,100876.75
2023-04-06T05:46:29.678Z,100874.44
2023-04-06T05:48:57.093Z,100870.75
2023-04-06T05:51:24.449Z,100874.81
2023-04-06T05:53:51.747Z,100877.78
2023-04-06T05:56:19.314Z,100871.06
2023-04-06T05:58:47.971Z,100874.31
2023-04-06T06:01:15.321Z,100866.50
2023-04-06T06:03:42.555Z,100862.88
2023-04-06T06:06:09.847Z,100859.50
2023-04-06T06:08:37.102Z,100858.75
2023-04-06T06:11:04.364Z,100860.69
2023-04-06T06:13:31.640Z,100862.72
2023-04-06T06:16:00.291Z,100860.94
2023-04-06T06:18:27.614Z,100856.63
2023-04-06T06:20:55.101Z,100857.44
2023-04-06T06:23:22.418Z,100860.53
2023-04-06T06:25:49.684Z,100863.97
2023-04-06T06:28:17.421Z,100855.84
2023-04-06T06:30:44.720Z,100863.56
2023-04-06T06:33:13.378Z,100869.78
2023-04-06T06:35:40.753Z,100867.00
2023-04-06T06:38:08.318Z,100864.69
2023-04-06T06:40:35.729Z,100860.53
2023-04-06T06:43:03.210Z,100856.63
2023-04-06T06:45:31.351Z,100861.63
2023-04-06T06:47:58.647Z,100857.25
2023-04-06T06:50:27.294Z,100866.91
2023-04-06T06:52:54.633Z,100857.91
2023-04-06T06:55:21.982Z,100862.38
2023-04-06T06:57:49.292Z,100861.75
2023-04-06T07:00:16.979Z,100857.75
2023-04-06T07:02:44.354Z,100857.22
2023-04-06T07:05:24.329Z,100851.75
2023-04-06T07:07:56.293Z,100857.09
2023-04-06T07:10:23.728Z,100864.38
2023-04-06T07:12:51.029Z,100858.00
2023-04-06T07:15:18.390Z,100857.59
2023-04-06T07:17:46.578Z,100856.13
2023-04-06T07:20:14.393Z,100860.88
2023-04-06T07:22:42.416Z,100854.13
2023-04-06T07:25:11.346Z,100851.53
2023-04-06T07:27:38.968Z,100854.31
2023-04-06T07:30:06.809Z,100854.78
2023-04-06T07:32:35.595Z,100850.44
2023-04-06T07:35:03.050Z,100850.56
2023-04-06T07:37:30.353Z,100844.81
2023-04-06T07:39:57.631Z,100845.69
2023-04-06T07:42:26.206Z,100841.19
2023-04-06T07:44:53.499Z,100844.59
2023-04-06T07:47:20.766Z,100841.69
2023-04-06T07:49:48.055Z,100843.94
2023-04-06T07:52:15.298Z,100843.66
2023-04-06T07:54:42.705Z,100839.63
2023-04-06T07:57:10.012Z,100839.38
2023-04-06T07:59:38.725Z,100840.78
2023-04-06T08:02:06.306Z,100844.13
2023-04-06T08:04:33.891Z,100840.47
2023-04-06T08:07:01.528Z,100841.44
2023-04-06T08:09:28.974Z,100837.38
2023-04-06T08:11:56.410Z,100837.44
2023-04-06T08:14:23.732Z,100839.16
2023-04-06T08:16:52.327Z,100843.25
2023-04-06T08:19:19.899Z,100839.09
2023-04-06T08:21:48.125Z,100842.03
2023-04-06T08:24:15.493Z,100840.19
2023-04-06T08:26:42.874Z,100827.53
2023-04-06T08:29:10.307Z,100833.44
2023-04-06T08:31:37.924Z,100824.59
2023-04-06T08:34:08.606Z,100823.72
2023-04-06T08:36:37.493Z,100825.34
2023-04-06T08:39:04.882Z,100824.63
2023-04-06T08:41:33.003Z,100822.47
2023-04-06T08:44:01.091Z,100822.63
2023-04-06T08:46:30.809Z,100818.34
2023-04-06T08:48:58.699Z,100822.03
2023-04-06T08:51:28.746Z,100815.72
2023-04-06T08:53:56.507Z,100811.53
2023-04-06T08:56:24.001Z,100812.47
2023-04-06T08:58:53.906Z,100806.00
2023-04-06T09:01:23.294Z,100810.09
2023-04-06T09:03:51.775Z,100811.78
2023-04-06T09:06:19.732Z,100811.94
2023-04-06T09:08:48.336Z,100806.50
2023-04-06T09:11:16.859Z,100807.53
2023-04-06T09:13:47.979Z,100806.56
2023-04-06T09:16:15.403Z,100802.94
2023-04-06T09:18:42.913Z,100803.91
2023-04-06T09:21:10.780Z,100803.31
2023-04-06T09:23:38.924Z,100806.13
2023-04-06T09:26:11.638Z,100796.28
2023-04-06T09:28:46.291Z,100792.72
2023-04-06T09:31:13.618Z,100796.88
2023-04-06T09:33:41.358Z,100783.88
2023-04-06T09:36:10.504Z,100797.69
2023-04-06T09:38:38.651Z,100789.56
2023-04-06T09:41:05.993Z,100781.50
2023-04-06T09:43:34.636Z,100779.97
2023-04-06T09:46:03.877Z,100780.88
2023-04-06T09:48:32.944Z,100777.94
2023-04-06T09:51:01.666Z,100770.81
2023-04-06T09:53:29.992Z,100776.47
2023-04-06T09:55:59.585Z,100768.63
2023-04-06T09:58:27.803Z,100771.97
2023-04-06T10:00:59.711Z,100765.09
2023-04-06T10:03:33.029Z,100768.25
2023-04-06T10:06:05.661Z,100771.53
2023-04-06T10:08:35.000Z,100766.59
2023-04-06T10:11:02.621Z,100774.19
2023-04-06T10:13:29.892Z,100767.81
2023-04-06T10:15:59.192Z,100767.28
2023-04-06T10:18:26.650Z,100773.78
2023-04-06T10:20:56.806Z,100758.41
2023-04-06T10:23:26.038Z,100755.53
2023-04-06T10:25:54.021Z,100757.06
2023-04-06T10:28:21.609Z,100756.34
2023-04-06T10:30:49.202Z,100743.69
2023-04-06T10:33:18.512Z,100746.84
2023-04-06T10:35:46.411Z,100756.66
2023-04-06T10:38:15.180Z,100752.25
2023-04-06T10:40:43.801Z,100752.53
2023-04-06T10:43:11.630Z,100751.66
2023-04-06T10:45:39.434Z,100748.66
2023-04-06T10:48:16.940Z,100749.19
2023-04-06T10:50:47.173Z,100754.41
2023-04-06T10:53:22.346Z,100755.66
2023-04-06T10:55:51.134Z,100745.66
2023-04-06T10:58:18.505Z,100746.13
2023-04-06T11:00:50.645Z,100745.31
2023-04-06T11:03:19.155Z,100734.41
2023-04-06T11:05:48.525Z,100732.31
2023-04-06T11:08:25.609Z,100726.16
2023-04-06T11:10:52.992Z,100726.44
2023-04-06T11:13:20.284Z,100729.38
2023-04-06T11:15:47.612Z,100725.00
2023-04-06T11:18:18.883Z,100726.06
2023-04-06T11:20:50.913Z,100727.38
2023-04-06T11:23:24.301Z,100730.97
2023-04-06T11:25:52.424Z,100724.25
2023-04-06T11:28:19.981Z,100727.22
2023-04-06T11:30:47.339Z,100730.81
2023-04-06T11:33:21.699Z,100727.50
2023-04-06T11:35:50.430Z,100726.69
2023-04-06T11:38:19.864Z,100727.97
2023-04-06T11:40:47.212Z,100723.44
2023-04-06T11:43:14.486Z,100721.50
2023-04-06T11:45:42.870Z,100722.06
2023-04-06T11:48:19.221Z,100719.81
2023-04-06T11:50:48.415Z,100714.16
2023-04-06T11:53:17.037Z,100713.34
2023-04-06T11:55:47.686Z,100706.28
2023-04-06T11:58:15.031Z,100713.84
2023-04-06T12:00:47.322Z,100709.56
2023-04-06T12:03:15.314Z,100705.81
2023-04-06T12:05:42.701Z,100699.66
2023-04-06T12:08:10.023Z,100700.25
2023-04-06T12:10:38.632Z,100701.06
2023-04-06T12:13:05.911Z,100695.59
2023-04-06T12:15:33.277Z,100693.19
2023-04-06T12:18:00.679Z,100695.63
2023-04-06T12:20:28.400Z,100686.75
2023-04-06T12:22:55.961Z,100682.50
2023-04-06T12:25:23.237Z,100672.09
2023-04-06T12:27:51.851Z,100673.66
2023-04-06T12:30:19.185Z,100676.59
2023-04-06T12:32:48.267Z,100665.16
2023-04-06T12:35:17.290Z,100667.09
2023-04-06T12:37:44.581Z,100668.59
2023-04-06T12:40:12.793Z,100666.34
2023-04-06T12:42:41.322Z,100662.38
2023-04-06T12:45:10.587Z,100659.81
2023-04-06T12:47:38.637Z,100652.88
2023-04-06T12:50:07.351Z,100656.34
2023-04-06T12:52:36.233Z,100653.88
2023-04-06T12:55:03.701Z,100648.94
2023-04-06T12:57:31.524Z,100659.63
2023-04-06T12:59:59.327Z,100657.75
2023-04-06T13:02:28.120Z,100650.00
2023-04-06T13:04:55.430Z,100640.88
2023-04-06T13:07:22.732Z,100655.88
2023-04-06T13:09:50.644Z,100646.00
2023-04-06T13:12:17.967Z,100637.56
2023-04-06T13:14:45.445Z,100640.38
2023-04-06T13:17:12.807Z,100644.72
2023-04-06T13:19:41.419Z,100642.16
2023-04-06T13:22:08.691Z,100633.34
2023-04-06T13:24:36.097Z,100647.88
2023-04-06T13:27:03.657Z,100623.63
2023-04-06T13:29:31.148Z,100629.16
2023-04-06T13:31:58.458Z,100619.59
2023-04-06T13:34:25.743Z,100628.28
2023-04-06T13:36:54.448Z,100629.00
2023-04-06T13:39:21.751Z,100630.75
2023-04-06T13:41:49.380Z,100614.53
2023-04-06T13:44:16.993Z,100616.97
2023-04-06T13:46:44.750Z,100612.44
2023-04-06T13:49:12.026Z,100619.06
2023-04-06T13:51:39.282Z,100613.19
2023-04-06T13:54:07.996Z,100615.50
2023-04-06T13:56:35.299Z,100614.78
2023-04-06T13:59:02.617Z,100606.63
2023-04-06T14:01:29.971Z,100602.09
2023-04-06T14:03:57.419Z,100607.88
2023-04-06T14:06:31.283Z,100603.09
2023-04-06T14:08:59.495Z,100607.97
2023-04-06T14:11:28.166Z,100607.06
2023-04-06T14:13:58.035Z,100601.69
2023-04-06T14:16:26.477Z,100603.16
2023-04-06T14:18:53.898Z,100607.22
2023-04-06T14:21:21.227Z,100602.94
2023-04-06T14:23:48.568Z,100602.44
2023-04-06T14:26:16.203Z,100591.59
2023-04-06T14:28:44.847Z,100608.97
2023-04-06T14:31:14.146Z,100605.16
2023-04-06T14:33:41.859Z,100611.84
2023-04-06T14:36:09.776Z,100601.13
2023-04-06T14:38:37.417Z,100600.00
2023-04-06T14:41:04.757Z,100594.19
2023-04-06T14:43:33.262Z,100590.25
2023-04-06T14:46:06.427Z,100595.38
2023-04-06T14:48:33.709Z,100593.53
2023-04-06T14:51:01.249Z,100597.91
2023-04-06T14:53:29.208Z,100587.38
2023-04-06T14:55:56.975Z,100597.19
2023-04-06T14:58:25.424Z,100601.50
2023-04-06T15:00:56.819Z,100593.53
2023-04-06T15:03:26.348Z,100585.38
2023-04-06T15:05:54.186Z,100588.81
2023-04-06T15:08:22.390Z,100586.53
2023-04-06T15:10:49.729Z,100591.16
2023-04-06T15:13:17.070Z,100587.91
2023-04-06T15:15:44.717Z,100586.38
2023-04-06T15:18:12.421Z,100581.94
2023-04-06T15:20:41.521Z,100581.16
2023-04-06T15:23:08.788Z,100585.03
2023-04-06T15:25:36.124Z,100577.63
2023-04-06T15:28:03.445Z,100572.25
2023-04-06T15:30:30.751Z,100576.44
2023-04-06T15:33:01.407Z,100579.09
2023-04-06T15:35:29.616Z,100578.78
2023-04-06T15:37:58.764Z,100582.94
2023-04-06T15:40:27.199Z,100579.75
2023-04-06T15:42:54.499Z,100577.91
2023-04-06T15:45:22.091Z,100583.91
2023-04-06T15:47:49.457Z,100577.88
2023-04-06T15:50:16.772Z,100580.56
2023-04-06T15:52:44.075Z,100578.47
2023-04-06T15:55:12.682Z,100582.47
2023-04-06T15:57:39.986Z,100579.72
2023-04-06T16:00:08.783Z,100582.47
2023-04-06T16:02:36.219Z,100588.75
2023-04-06T16:05:04.225Z,100588.28
2023-04-06T16:07:31.863Z,100584.00
2023-04-06T16:09:59.489Z,100589.31
2023-04-06T16:12:29.089Z,100583.72
2023-04-06T16:14:56.551Z,100581.13
2023-04-06T16:17:23.882Z,100587.75
2023-04-06T16:19:51.255Z,100582.50
2023-04-06T16:22:18.550Z,100583.25
2023-04-06T16:24:45.843Z,100590.94
2023-04-06T16:27:13.206Z,100586.69
2023-04-06T16:29:42.147Z,100579.66
2023-04-06T16:32:11.019Z,100577.81
2023-04-06T16:34:38.424Z,100583.16
2023-04-06T16:37:05.776Z,100592.38
2023-04-06T16:39:33.117Z,100581.97
2023-04-06T16:42:02.289Z,100582.25
2023-04-06T16:44:30.390Z,100585.25
2023-04-06T16:47:00.175Z,100580.97
2023-04-06T16:49:27.881Z,100581.84
2023-04-06T16:51:55.343Z,100581.84
2023-04-06T16:54:22.616Z,100581.91
2023-04-06T16:56:49.865Z,100583.66
2023-04-06T16:59:17.119Z,100579.47
2023-04-06T17:01:44.468Z,100580.88
2023-04-06T17:04:13.538Z,100584.50
2023-04-06T17:06:40.989Z,100574.34
2023-04-06T17:09:08.270Z,100582.31
2023-04-06T17:11:45.985Z,100580.19
2023-04-06T17:14:14.070Z,100583.38
2023-04-06T17:16:41.369Z,100587.19
2023-04-06T17:19:09.039Z,100585.16
2023-04-06T17:21:37.807Z,100581.44
2023-04-06T17:24:05.361Z,100581.56
2023-04-06T17:26:32.637Z,100589.88
2023-04-06T17:28:59.897Z,100583.47
2023-04-06T17:31:27.297Z,100590.03
2023-04-06T17:33:54.568Z,100591.09
2023-04-06T17:36:22.260Z,100595.47
2023-04-06T17:38:51.240Z,100588.00
2023-04-06T17:41:18.506Z,100599.66
2023-04-06T17:43:46.019Z,100603.63
2023-04-06T17:46:13.591Z,100608.06
2023-04-06T17:48:41.644Z,100609.19
2023-04-06T17:51:08.935Z,100613.13
2023-04-06T17:53:37.080Z,100606.50
2023-04-06T17:56:06.093Z,100610.03
2023-04-06T17:58:33.837Z,100614.44
2023-04-06T18:01:06.150Z,100616.72
2023-04-06T18:03:33.554Z,100618.09
2023-04-06T18:06:09.548Z,100623.38
2023-04-06T18:08:36.870Z,100622.09
2023-04-06T18:11:04.565Z,100629.28
2023-04-06T18:13:33.498Z,100632.78
2023-04-06T18:16:01.681Z,100631.84
2023-04-06T18:18:29.163Z,100632.19
2023-04-06T18:20:56.489Z,100637.84
2023-04-06T18:23:23.739Z,100637.06
2023-04-06T18:29:13.988Z,100648.72
2023-04-06T18:31:41.387Z,100643.38
2023-04-06T18:34:08.650Z,100640.22
2023-04-06T18:36:36.169Z,100644.31
2023-04-06T18:39:03.546Z,100653.88
2023-04-06T18:41:31.096Z,100661.19
2023-04-06T18:43:58.665Z,100655.56
2023-04-06T18:46:27.275Z,100658.34
2023-04-06T18:48:54.576Z,100652.22
2023-04-06T18:51:21.967Z,100653.03
2023-04-06T18:53:49.290Z,100652.69
2023-04-06T18:56:18.316Z,100665.06
2023-04-06T18:58:46.245Z,100665.06
2023-04-06T19:01:20.576Z,100664.66
2023-04-06T19:03:49.383Z,100665.22
2023-04-06T19:06:16.833Z,100672.31
2023-04-06T19:08:44.087Z,100675.31
2023-04-06T19:11:11.825Z,100668.03
2023-04-06T19:13:39.149Z,100675.06
2023-04-06T19:16:10.127Z,100669.69
2023-04-06T19:18:38.089Z,100658.59
2023-04-06T19:21:14.795Z,100663.41
2023-04-06T19:23:42.079Z,100658.38
2023-04-06T19:26:10.161Z,100661.53
2023-04-06T19:28:37.456Z,100662.88
2023-04-06T19:31:05.800Z,100662.41
2023-04-06T19:33:35.188Z,100669.78
2023-04-06T19:36:02.977Z,100673.03
2023-04-06T19:38:32.576Z,100669.84
2023-04-06T19:41:00.045Z,100667.41
2023-04-06T19:43:27.361Z,100670.41
2023-04-06T19:45:54.775Z,100669.16
2023-04-06T19:48:22.115Z,100679.47
2023-04-06T19:50:49.540Z,100671.44
2023-04-06T19:53:16.794Z,100664.31
2023-04-06T19:55:46.624Z,100672.06
2023-04-06T19:58:14.204Z,100669.84
2023-04-06T20:00:41.535Z,100668.81
2023-04-06T20:03:09.199Z,100679.25
2023-04-06T20:05:36.625Z,100665.44
2023-04-06T20:08:03.932Z,100670.50
2023-04-06T20:10:31.169Z,100678.63
2023-04-06T20:13:01.156Z,100677.94
2023-04-06T20:15:28.468Z,100680.44
2023-04-06T20:17:55.925Z,100685.66
2023-04-06T20:20:23.201Z,100687.50
2023-04-06T20:22:50.508Z,100687.28
2023-04-06T20:25:17.797Z,100681.50
2023-04-06T20:27:45.521Z,100681.78
2023-04-06T20:30:15.392Z,100685.56
2023-04-06T20:32:42.744Z,100683.13
2023-04-06T20:35:10.499Z,100687.06
2023-04-06T20:37:38.715Z,100681.94
2023-04-06T20:40:06.809Z,100670.88
2023-04-06T20:42:34.216Z,100689.19
2023-04-06T20:45:03.058Z,100691.75
2023-04-06T20:47:32.190Z,100677.28
2023-04-06T20:49:59.624Z,100685.09
2023-04-06T20:52:27.621Z,100682.19
2023-04-06T20:54:55.025Z,100671.63
2023-04-06T20:57:22.329Z,100677.28
2023-04-06T20:59:49.599Z,100682.38
2023-04-06T21:02:17.437Z,100685.03
2023-04-06T21:04:46.237Z,100678.13
2023-04-06T21:07:13.564Z,100675.72
2023-04-06T21:09:41.340Z,100669.94
2023-04-06T21:12:08.766Z,100665.31
2023-04-06T21:14:36.440Z,100673.31
2023-04-06T21:17:04.112Z,100675.28
2023-04-06T21:19:31.503Z,100677.88
2023-04-06T21:22:00.132Z,100687.34
2023-04-06T21:24:27.468Z,100682.16
2023-04-06T21:26:54.766Z,100674.19
2023-04-06T21:29:22.075Z,100684.28
2023-04-06T21:31:49.345Z,100682.44
2023-04-06T21:34:16.985Z,100668.22
2023-04-06T21:36:44.448Z,100672.31
2023-04-06T21:39:13.098Z,100675.31
2023-04-06T21:41:40.654Z,100675.13
2023-04-06T21:44:07.930Z,100675.81
2023-04-06T21:46:35.390Z,100676.72
2023-04-06T21:49:02.693Z,100677.28
2023-04-06T21:51:30.015Z,100671.88
2023-04-06T21:53:57.285Z,100668.16
2023-04-06T21:56:26.274Z,100662.63
2023-04-06T21:58:53.706Z,100664.00
2023-04-06T22:01:21.257Z,100655.16
2023-04-06T22:03:49.454Z,100660.06
2023-04-06T22:06:17.006Z,100662.41
2023-04-06T22:08:45.945Z,100659.69
2023-04-06T22:11:13.235Z,100666.56
2023-04-06T22:13:41.829Z,100660.25
2023-04-06T22:16:09.155Z,100666.38
2023-04-06T22:18:38.897Z,100658.94
2023-04-06T22:21:06.963Z,100670.28
2023-04-06T22:23:34.343Z,100661.38
2023-04-06T22:26:01.619Z,100661.91
2023-04-06T22:28:28.897Z,100660.06
2023-04-06T22:30:57.468Z,100658.13
2023-04-06T22:33:25.039Z,100664.31
2023-04-06T22:35:52.313Z,100657.16
2023-04-06T22:38:19.632Z,100658.38
2023-04-06T22:40:46.890Z,100651.63
2023-04-06T22:43:14.150Z,100659.03
2023-04-06T22:45:41.629Z,100653.78
2023-04-06T22:48:10.266Z,100655.53
2023-04-06T22:50:37.551Z,100652.03
2023-04-06T22:53:04.793Z,100655.94
2023-04-06T22:55:32.116Z,100649.81
2023-04-06T22:57:59.430Z,100652.53
2023-04-06T23:00:26.699Z,100651.75
2023-04-06T23:02:54.096Z,100648.59
2023-04-06T23:05:22.822Z,100645.50
2023-04-06T23:07:51.151Z,100646.53
2023-04-06T23:10:20.042Z,100645.41
2023-04-06T23:12:48.204Z,100649.78
2023-04-06T23:15:15.697Z,100644.13
2023-04-06T23:17:42.957Z,100648.59
2023-04-06T23:20:10.583Z,100647.63
2023-04-06T23:22:39.449Z,100645.44
2023-04-06T23:25:07.989Z,100638.22
2023-04-06T23:27:35.599Z,100637.13
2023-04-06T23:30:02.858Z,100638.88
2023-04-06T23:32:30.247Z,100638.22
2023-04-06T23:34:57.592Z,100636.94
2023-04-06T23:37:24.859Z,100631.81
2023-04-06T23:39:53.422Z,100633.16
2023-04-06T23:42:20.868Z,100630.19
2023-04-06T23:44:48.310Z,100630.81
2023-04-06T23:47:15.631Z,100628.84
2023-04-06T23:49:42.923Z,100633.09
2023-04-06T23:52:10.226Z,100634.06
2023-04-06T23:54:37.519Z,100631.06
2023-04-06T23:57:06.110Z,100631.91
2023-04-06T23:59:33.402Z,100634.78
